createdAt,value
2018-12-25T00:00:40.465Z,88.90
2018-12-25T00:03:10.041Z,88.50
2018-12-25T00:05:39.729Z,86.90
2018-12-25T00:08:09.272Z,87.00
2018-12-25T00:10:38.732Z,88.10
2018-12-25T00:13:08.460Z,87.00
2018-12-25T00:15:37.970Z,86.30
2018-12-25T00:18:07.502Z,86.60
2018-12-25T00:20:37.023Z,87.10
2018-12-25T00:23:06.483Z,86.70
2018-12-25T00:25:36.091Z,86.20
2018-12-25T00:28:05.745Z,85.70
2018-12-25T00:30:35.273Z,86.50
2018-12-25T00:33:05.113Z,85.20
2018-12-25T00:35:34.625Z,84.40
2018-12-25T00:38:04.248Z,85.10
2018-12-25T00:40:33.780Z,85.40
2018-12-25T00:43:03.396Z,85.10
2018-12-25T00:45:32.941Z,84.20
2018-12-25T00:48:02.523Z,84.70
2018-12-25T00:50:33.038Z,84.00
2018-12-25T00:53:02.682Z,84.20
2018-12-25T00:55:32.199Z,84.50
2018-12-25T00:58:01.725Z,84.80
2018-12-25T01:00:31.207Z,83.80
2018-12-25T01:03:00.844Z,83.90
2018-12-25T01:05:30.406Z,84.10
2018-12-25T01:07:59.952Z,83.00
2018-12-25T01:10:29.502Z,82.60
2018-12-25T01:12:58.992Z,84.80
2018-12-25T01:15:28.494Z,83.10
2018-12-25T01:17:58.101Z,83.60
2018-12-25T01:20:27.624Z,84.30
2018-12-25T01:22:57.761Z,83.60
2018-12-25T01:25:27.329Z,84.00
2018-12-25T01:27:57.032Z,83.40
2018-12-25T01:30:26.518Z,83.60
2018-12-25T01:32:56.381Z,83.40
2018-12-25T01:35:25.905Z,83.80
2018-12-25T01:37:55.385Z,83.50
2018-12-25T01:40:24.962Z,83.10
2018-12-25T01:42:54.479Z,83.50
2018-12-25T01:45:23.958Z,83.50
2018-12-25T01:47:53.576Z,82.50
2018-12-25T01:50:23.078Z,82.90
2018-12-25T01:52:52.559Z,83.50
2018-12-25T01:55:22.288Z,83.90
2018-12-25T01:57:51.787Z,83.20
2018-12-25T02:00:21.851Z,83.10
2018-12-25T02:02:51.442Z,83.40
2018-12-25T02:05:21.086Z,83.50
2018-12-25T02:07:50.562Z,83.40
2018-12-25T02:10:20.181Z,83.40
2018-12-25T02:12:49.696Z,83.40
2018-12-25T02:15:19.170Z,82.60
2018-12-25T02:17:48.693Z,83.50
2018-12-25T02:20:18.343Z,82.90
2018-12-25T02:22:47.847Z,84.00
2018-12-25T02:25:17.393Z,82.90
2018-12-25T02:27:46.903Z,83.10
2018-12-25T02:30:16.455Z,84.20
2018-12-25T02:32:45.891Z,83.50
2018-12-25T02:35:15.396Z,82.80
2018-12-25T02:37:44.843Z,82.70
2018-12-25T02:40:14.359Z,83.40
2018-12-25T02:42:43.830Z,83.50
2018-12-25T02:45:13.477Z,83.50
2018-12-25T02:47:42.985Z,82.60
2018-12-25T02:50:12.440Z,83.30
2018-12-25T02:52:42.075Z,82.70
2018-12-25T02:55:11.598Z,83.20
2018-12-25T02:57:41.075Z,83.20
2018-12-25T03:00:10.631Z,83.30
2018-12-25T03:02:40.164Z,83.00
2018-12-25T03:05:09.660Z,83.00
2018-12-25T03:07:39.147Z,83.20
2018-12-25T03:10:09.478Z,83.20
2018-12-25T03:12:38.963Z,83.10
2018-12-25T03:15:08.449Z,83.10
2018-12-25T03:17:38.151Z,83.10
2018-12-25T03:20:07.594Z,83.40
2018-12-25T03:22:37.071Z,83.70
2018-12-25T03:25:06.610Z,83.50
2018-12-25T03:27:36.104Z,84.00
2018-12-25T03:30:05.809Z,84.80
2018-12-25T03:32:35.816Z,84.50
2018-12-25T03:35:05.420Z,85.00
2018-12-25T03:37:34.884Z,85.30
2018-12-25T03:40:04.604Z,85.70
2018-12-25T03:42:35.145Z,85.80
2018-12-25T03:45:04.764Z,86.00
2018-12-25T03:47:34.268Z,87.40
2018-12-25T03:50:10.685Z,87.20
2018-12-25T03:52:35.166Z,87.90
2018-12-25T03:55:04.650Z,87.40
2018-12-25T03:57:34.201Z,87.90
2018-12-25T04:00:04.121Z,88.10
2018-12-25T04:02:33.610Z,88.70
2018-12-25T04:05:03.152Z,88.90
2018-12-25T04:07:32.614Z,89.40
2018-12-25T04:10:02.080Z,89.80
2018-12-25T04:12:31.998Z,90.40
2018-12-25T04:15:01.485Z,90.80
2018-12-25T04:17:30.957Z,90.90
2018-12-25T04:20:00.537Z,90.60
2018-12-25T04:22:30.012Z,90.90
2018-12-25T04:24:59.473Z,91.00
2018-12-25T04:27:29.132Z,90.90
2018-12-25T04:29:58.591Z,91.10
2018-12-25T04:32:28.071Z,91.50
2018-12-25T04:34:57.666Z,91.80
2018-12-25T04:37:27.152Z,91.70
2018-12-25T04:39:56.626Z,91.60
2018-12-25T04:42:26.187Z,92.00
2018-12-25T04:44:55.652Z,92.00
2018-12-25T04:47:25.104Z,92.20
2018-12-25T04:49:54.638Z,92.00
2018-12-25T04:52:24.123Z,92.20
2018-12-25T04:54:53.590Z,92.00
2018-12-25T04:57:23.121Z,92.10
2018-12-25T04:59:52.740Z,92.10
2018-12-25T05:02:22.217Z,92.30
2018-12-25T05:04:51.732Z,92.30
2018-12-25T05:07:21.339Z,92.50
2018-12-25T05:09:50.876Z,92.60
2018-12-25T05:12:20.371Z,92.80
2018-12-25T05:14:50.183Z,93.00
2018-12-25T05:17:19.687Z,93.00
2018-12-25T05:19:49.180Z,92.70
2018-12-25T05:22:18.869Z,92.80
2018-12-25T05:24:48.400Z,92.90
2018-12-25T05:27:18.217Z,93.20
2018-12-25T05:29:47.700Z,93.00
2018-12-25T05:32:17.263Z,93.20
2018-12-25T05:34:46.849Z,93.20
2018-12-25T05:37:16.399Z,93.10
2018-12-25T05:39:45.905Z,93.30
2018-12-25T05:42:15.398Z,93.30
2018-12-25T05:44:44.866Z,93.40
2018-12-25T05:47:14.383Z,94.00
2018-12-25T05:49:43.894Z,93.80
2018-12-25T05:52:13.389Z,93.80
2018-12-25T05:54:42.923Z,93.70
2018-12-25T05:57:12.394Z,93.80
2018-12-25T05:59:41.995Z,94.20
2018-12-25T06:02:11.543Z,94.30
2018-12-25T06:04:41.060Z,94.30
2018-12-25T06:07:10.702Z,94.30
2018-12-25T06:09:40.238Z,94.20
2018-12-25T06:12:09.754Z,94.20
2018-12-25T06:14:39.319Z,94.20
2018-12-25T06:17:08.916Z,94.10
2018-12-25T06:19:38.742Z,93.90
2018-12-25T06:22:08.232Z,93.90
2018-12-25T06:24:37.736Z,93.80
2018-12-25T06:27:07.366Z,94.00
2018-12-25T06:29:36.830Z,93.70
2018-12-25T06:32:06.372Z,93.80
2018-12-25T06:34:36.034Z,93.80
2018-12-25T06:37:05.542Z,93.70
2018-12-25T06:39:35.070Z,93.70
2018-12-25T06:42:04.690Z,93.70
2018-12-25T06:44:34.159Z,93.70
2018-12-25T06:47:03.684Z,93.80
2018-12-25T06:49:33.317Z,93.70
2018-12-25T06:52:02.827Z,93.80
2018-12-25T06:54:32.363Z,93.70
2018-12-25T06:57:01.958Z,93.70
2018-12-25T06:59:31.424Z,93.70
2018-12-25T07:02:00.938Z,93.80
2018-12-25T07:04:30.709Z,93.80
2018-12-25T07:07:00.214Z,93.70
2018-12-25T07:09:29.826Z,93.90
2018-12-25T07:11:59.304Z,94.00
2018-12-25T07:14:28.784Z,94.00
2018-12-25T07:16:59.467Z,94.20
2018-12-25T07:19:28.952Z,94.10
2018-12-25T07:21:58.436Z,94.20
2018-12-25T07:24:28.598Z,94.00
2018-12-25T07:26:58.429Z,94.20
2018-12-25T07:29:28.037Z,94.20
2018-12-25T07:31:57.519Z,94.20
2018-12-25T07:34:30.012Z,94.30
2018-12-25T07:36:59.591Z,94.10
2018-12-25T07:39:29.113Z,94.10
2018-12-25T07:41:58.791Z,94.00
2018-12-25T07:44:28.335Z,94.10
2018-12-25T07:46:58.189Z,94.10
2018-12-25T07:49:27.833Z,94.40
2018-12-25T07:51:57.383Z,94.40
2018-12-25T07:54:26.914Z,94.20
2018-12-25T07:56:56.428Z,94.30
2018-12-25T07:59:26.022Z,94.30
2018-12-25T08:01:55.492Z,94.30
2018-12-25T08:04:24.994Z,94.30
2018-12-25T08:06:54.537Z,94.30
2018-12-25T08:09:24.036Z,94.50
2018-12-25T08:11:53.526Z,94.40
2018-12-25T08:14:23.038Z,94.40
2018-12-25T08:16:52.596Z,94.50
2018-12-25T08:19:22.092Z,94.50
2018-12-25T08:21:51.574Z,94.40
2018-12-25T08:24:21.300Z,94.50
2018-12-25T08:26:50.778Z,94.40
2018-12-25T08:29:20.300Z,94.30
2018-12-25T08:31:49.931Z,94.20
2018-12-25T08:34:23.124Z,94.10
2018-12-25T08:36:52.784Z,94.20
2018-12-25T08:39:22.512Z,94.10
2018-12-25T08:41:51.989Z,94.20
2018-12-25T08:44:21.523Z,94.10
2018-12-25T08:46:51.145Z,94.30
2018-12-25T08:49:20.614Z,94.10
2018-12-25T08:51:50.177Z,93.90
2018-12-25T08:54:19.794Z,93.80
2018-12-25T08:56:49.277Z,93.60
2018-12-25T08:59:19.218Z,93.70
2018-12-25T09:01:48.693Z,93.60
2018-12-25T09:04:18.192Z,93.50
2018-12-25T09:06:47.875Z,93.70
2018-12-25T09:09:17.378Z,93.30
2018-12-25T09:11:46.938Z,93.30
2018-12-25T09:14:16.540Z,93.50
2018-12-25T09:16:46.056Z,93.30
2018-12-25T09:19:15.969Z,93.20
2018-12-25T09:21:46.377Z,93.20
2018-12-25T09:24:16.365Z,93.10
2018-12-25T09:26:45.883Z,93.20
2018-12-25T09:29:15.385Z,93.00
2018-12-25T09:31:44.998Z,93.20
2018-12-25T09:34:14.470Z,92.80
2018-12-25T09:36:44.547Z,92.60
2018-12-25T09:39:14.199Z,92.70
2018-12-25T09:41:43.797Z,92.90
2018-12-25T09:44:13.377Z,92.80
2018-12-25T09:46:42.881Z,92.80
2018-12-25T09:49:12.436Z,92.80
2018-12-25T09:51:42.009Z,92.80
2018-12-25T09:54:11.905Z,92.70
2018-12-25T09:56:41.451Z,92.90
2018-12-25T09:59:11.361Z,92.80
2018-12-25T10:01:40.865Z,92.90
2018-12-25T10:04:10.356Z,92.90
2018-12-25T10:06:39.992Z,92.80
2018-12-25T10:09:10.079Z,92.90
2018-12-25T10:11:44.289Z,92.60
2018-12-25T10:14:10.768Z,92.40
2018-12-25T10:16:40.255Z,92.50
2018-12-25T10:19:09.906Z,92.40
2018-12-25T10:21:39.467Z,92.50
2018-12-25T10:24:09.123Z,92.50
2018-12-25T10:26:38.628Z,92.40
2018-12-25T10:29:08.168Z,92.50
2018-12-25T10:31:37.643Z,92.50
2018-12-25T10:34:07.153Z,92.20
2018-12-25T10:36:36.650Z,92.20
2018-12-25T10:39:07.494Z,92.20
2018-12-25T10:41:37.089Z,92.00
2018-12-25T10:44:06.601Z,92.30
2018-12-25T10:46:36.244Z,92.40
2018-12-25T10:49:05.791Z,92.60
2018-12-25T10:51:35.298Z,92.30
2018-12-25T10:54:04.850Z,92.40
2018-12-25T10:56:34.425Z,92.50
2018-12-25T10:59:04.150Z,92.60
2018-12-25T11:01:38.766Z,92.50
2018-12-25T11:04:08.806Z,92.60
2018-12-25T11:06:38.376Z,92.60
2018-12-25T11:09:08.167Z,92.50
2018-12-25T11:11:37.757Z,92.60
2018-12-25T11:14:08.648Z,92.80
2018-12-25T11:16:39.822Z,92.90
2018-12-25T11:19:10.653Z,92.80
2018-12-25T11:21:40.200Z,93.40
2018-12-25T11:24:09.748Z,93.30
2018-12-25T11:26:39.317Z,93.70
2018-12-25T11:29:08.798Z,93.70
2018-12-25T11:31:38.350Z,93.80
2018-12-25T11:34:09.956Z,94.10
2018-12-25T11:36:40.686Z,94.40
2018-12-25T11:39:14.909Z,94.70
2018-12-25T11:41:45.563Z,94.90
2018-12-25T11:44:15.163Z,95.10
2018-12-25T11:46:46.098Z,95.40
2018-12-25T11:49:16.137Z,95.50
2018-12-25T11:51:45.706Z,95.90
2018-12-25T11:54:19.838Z,96.00
2018-12-25T11:56:53.337Z,96.40
2018-12-25T11:59:25.452Z,96.50
2018-12-25T12:01:56.648Z,96.50
2018-12-25T12:04:26.233Z,96.80
2018-12-25T12:06:55.854Z,96.70
2018-12-25T12:09:25.460Z,96.70
2018-12-25T12:11:55.803Z,96.60
2018-12-25T12:14:25.398Z,96.60
2018-12-25T12:16:55.014Z,96.40
2018-12-25T12:19:24.507Z,96.30
2018-12-25T12:21:54.071Z,96.30
2018-12-25T12:24:23.754Z,96.40
2018-12-25T12:26:53.236Z,96.90
2018-12-25T12:29:22.933Z,96.90
2018-12-25T12:31:52.497Z,96.90
2018-12-25T12:34:22.001Z,96.90
2018-12-25T12:36:52.021Z,96.90
2018-12-25T12:39:21.574Z,96.90
2018-12-25T12:41:51.228Z,96.90
2018-12-25T12:44:20.809Z,96.70
2018-12-25T12:46:50.441Z,96.70
2018-12-25T12:49:19.952Z,96.60
2018-12-25T12:51:49.604Z,96.50
2018-12-25T12:54:19.211Z,96.40
2018-12-25T12:56:48.696Z,96.80
2018-12-25T12:59:18.234Z,96.90
2018-12-25T13:01:47.885Z,96.90
2018-12-25T13:04:18.055Z,96.90
2018-12-25T13:06:47.652Z,96.90
2018-12-25T13:09:17.505Z,96.90
2018-12-25T13:11:47.007Z,96.90
2018-12-25T13:14:16.521Z,96.90
2018-12-25T13:16:46.085Z,96.90
2018-12-25T13:19:15.567Z,96.90
2018-12-25T13:21:45.145Z,97.10
2018-12-25T13:24:14.765Z,97.00
2018-12-25T13:26:44.281Z,97.10
2018-12-25T13:29:14.027Z,97.10
2018-12-25T13:31:43.499Z,97.00
2018-12-25T13:34:12.980Z,97.10
2018-12-25T13:36:42.576Z,97.20
2018-12-25T13:39:12.102Z,97.10
2018-12-25T13:41:41.706Z,97.10
2018-12-25T13:44:11.553Z,97.20
2018-12-25T13:46:41.132Z,97.20
2018-12-25T13:49:10.917Z,97.20
2018-12-25T13:51:41.299Z,97.30
2018-12-25T13:54:11.090Z,97.40
2018-12-25T13:56:40.554Z,97.40
2018-12-25T13:59:10.007Z,97.50
2018-12-25T14:01:39.856Z,97.70
2018-12-25T14:04:09.345Z,97.70
2018-12-25T14:06:38.829Z,97.60
2018-12-25T14:09:08.964Z,97.60
2018-12-25T14:11:38.613Z,97.70
2018-12-25T14:14:08.162Z,97.90
2018-12-25T14:16:37.650Z,97.90
2018-12-25T14:19:07.379Z,97.80
2018-12-25T14:21:37.481Z,97.80
2018-12-25T14:24:07.056Z,97.80
2018-12-25T14:26:36.546Z,97.80
2018-12-25T14:29:06.092Z,97.90
2018-12-25T14:31:36.896Z,98.10
2018-12-25T14:34:06.557Z,98.00
2018-12-25T14:36:36.035Z,98.20
2018-12-25T14:39:07.536Z,98.20
2018-12-25T14:41:37.321Z,98.30
2018-12-25T14:44:06.805Z,98.40
2018-12-25T14:46:36.293Z,98.50
2018-12-25T14:49:05.959Z,98.50
2018-12-25T14:51:35.450Z,98.50
2018-12-25T14:54:06.102Z,98.40
2018-12-25T14:56:35.606Z,98.40
2018-12-25T14:59:05.096Z,98.60
2018-12-25T15:01:34.818Z,98.70
2018-12-25T15:04:04.268Z,98.70
2018-12-25T15:06:33.783Z,98.80
2018-12-25T15:09:04.546Z,98.80
2018-12-25T15:11:34.126Z,98.80
2018-12-25T15:14:03.634Z,98.90
2018-12-25T15:16:33.184Z,99.00
2018-12-25T15:19:02.680Z,99.10
2018-12-25T15:21:32.153Z,99.20
2018-12-25T15:24:01.830Z,99.50
2018-12-25T15:26:31.277Z,99.30
2018-12-25T15:29:00.742Z,99.30
2018-12-25T15:31:30.329Z,99.60
2018-12-25T15:33:59.917Z,99.70
2018-12-25T15:36:29.401Z,99.70
2018-12-25T15:38:59.113Z,99.70
2018-12-25T15:41:28.624Z,99.60
2018-12-25T15:43:58.113Z,99.60
2018-12-25T15:46:27.776Z,99.60
2018-12-25T15:48:57.252Z,99.70
2018-12-25T15:51:27.074Z,99.80
2018-12-25T15:53:56.572Z,99.70
2018-12-25T15:56:26.013Z,99.80
2018-12-25T15:58:55.784Z,99.80
2018-12-25T16:01:25.255Z,99.80
2018-12-25T16:03:54.734Z,99.80
2018-12-25T16:06:24.324Z,99.90
2018-12-25T16:08:53.869Z,99.70
2018-12-25T16:11:23.349Z,99.80
2018-12-25T16:13:53.097Z,99.70
2018-12-25T16:16:22.623Z,99.80
2018-12-25T16:18:52.438Z,99.90
2018-12-25T16:21:21.942Z,99.90
2018-12-25T16:23:51.480Z,99.90
2018-12-25T16:26:21.005Z,99.90
2018-12-25T16:28:50.487Z,99.90
2018-12-25T16:31:20.035Z,99.90
2018-12-25T16:33:49.815Z,99.90
2018-12-25T16:36:19.364Z,99.90
2018-12-25T16:38:48.902Z,99.90
2018-12-25T16:41:18.423Z,99.90
2018-12-25T16:43:47.972Z,99.90
2018-12-25T16:46:17.459Z,99.90
2018-12-25T16:48:47.074Z,99.90
2018-12-25T16:51:16.587Z,99.90
2018-12-25T16:53:53.400Z,99.90
2018-12-25T16:56:17.209Z,99.90
2018-12-25T16:58:47.046Z,99.90
2018-12-25T17:01:16.608Z,99.90
2018-12-25T17:03:46.309Z,99.90
2018-12-25T17:06:15.868Z,99.90
2018-12-25T17:08:45.705Z,99.90
2018-12-25T17:11:15.215Z,99.90
2018-12-25T17:13:45.035Z,99.90
2018-12-25T17:16:14.512Z,99.90
2018-12-25T17:18:43.996Z,99.90
2018-12-25T17:21:13.809Z,99.90
2018-12-25T17:23:43.329Z,99.90
2018-12-25T17:26:12.798Z,99.90
2018-12-25T17:28:42.432Z,99.90
2018-12-25T17:31:11.939Z,99.90
2018-12-25T17:33:41.434Z,99.90
2018-12-25T17:36:11.027Z,99.90
2018-12-25T17:38:40.519Z,99.90
2018-12-25T17:41:10.293Z,99.90
2018-12-25T17:43:39.928Z,99.90
2018-12-25T17:46:09.418Z,99.90
2018-12-25T17:48:39.275Z,99.90
2018-12-25T17:51:08.798Z,99.90
2018-12-25T17:53:38.735Z,99.90
2018-12-25T17:56:08.266Z,99.90
2018-12-25T17:58:38.333Z,99.90
2018-12-25T18:01:07.933Z,99.90
2018-12-25T18:03:37.419Z,99.90
2018-12-25T18:06:06.971Z,99.90
2018-12-25T18:08:36.449Z,99.90
2018-12-25T18:11:05.984Z,99.90
2018-12-25T18:13:35.547Z,99.90
2018-12-25T18:16:05.039Z,99.90
2018-12-25T18:18:34.558Z,99.90
2018-12-25T18:21:04.084Z,99.90
2018-12-25T18:23:33.537Z,99.90
2018-12-25T18:26:03.167Z,99.90
2018-12-25T18:28:32.626Z,99.90
2018-12-25T18:31:02.100Z,99.90
2018-12-25T18:33:31.797Z,99.90
2018-12-25T18:36:01.352Z,99.90
2018-12-25T18:38:30.832Z,99.90
2018-12-25T18:41:00.639Z,99.90
2018-12-25T18:43:30.151Z,99.90
2018-12-25T18:45:59.818Z,99.90
2018-12-25T18:48:29.281Z,99.90
2018-12-25T18:50:58.828Z,99.90
2018-12-25T18:53:28.517Z,99.90
2018-12-25T18:55:58.078Z,99.90
2018-12-25T18:58:27.567Z,99.90
2018-12-25T19:00:57.193Z,99.90
2018-12-25T19:03:26.716Z,99.90
2018-12-25T19:05:56.687Z,99.90
2018-12-25T19:08:26.110Z,99.90
2018-12-25T19:10:55.595Z,99.90
2018-12-25T19:13:25.176Z,99.90
2018-12-25T19:15:57.484Z,99.90
2018-12-25T19:18:27.018Z,99.90
2018-12-25T19:20:56.607Z,99.90
2018-12-25T19:23:26.308Z,99.90
2018-12-25T19:25:55.792Z,99.90
2018-12-25T19:28:25.939Z,99.90
2018-12-25T19:30:55.428Z,99.90
2018-12-25T19:33:24.962Z,99.90
2018-12-25T19:35:54.502Z,99.90
2018-12-25T19:38:24.278Z,99.90
2018-12-25T19:40:53.908Z,99.90
2018-12-25T19:43:23.471Z,99.90
2018-12-25T19:45:53.711Z,99.90
2018-12-25T19:48:23.172Z,99.90
2018-12-25T19:50:52.740Z,99.90
2018-12-25T19:53:22.262Z,99.90
2018-12-25T19:55:51.957Z,99.90
2018-12-25T19:58:21.457Z,99.90
2018-12-25T20:00:51.115Z,99.90
2018-12-25T20:03:25.494Z,99.90
2018-12-25T20:06:35.900Z,99.90
2018-12-25T20:09:41.316Z,99.90
2018-12-25T20:12:57.932Z,99.90
2018-12-25T20:15:58.393Z,99.90
2018-12-25T20:18:42.211Z,99.90
2018-12-25T20:21:52.052Z,99.90
2018-12-25T20:24:59.911Z,99.90
2018-12-25T20:28:03.512Z,99.90
2018-12-25T20:31:38.325Z,99.90
2018-12-25T20:34:27.393Z,99.90
2018-12-25T20:37:36.427Z,99.90
2018-12-25T20:40:55.770Z,99.90
2018-12-25T20:44:12.277Z,99.90
2018-12-25T20:47:11.862Z,99.90
2018-12-25T20:50:16.011Z,99.90
2018-12-25T20:53:22.568Z,99.90
2018-12-25T20:56:24.930Z,99.90
2018-12-25T20:59:44.899Z,99.90
2018-12-25T21:03:13.646Z,99.90
2018-12-25T21:06:45.421Z,99.90
2018-12-25T21:09:55.961Z,99.90
2018-12-25T21:13:06.750Z,99.90
2018-12-25T21:16:10.097Z,99.90
2018-12-25T21:19:48.082Z,99.90
2018-12-25T21:23:03.059Z,99.90
2018-12-25T21:26:07.972Z,99.90
2018-12-25T21:28:37.546Z,99.90
2018-12-25T21:31:07.656Z,99.90
2018-12-25T21:33:37.308Z,99.90
2018-12-25T21:36:07.084Z,99.90
2018-12-25T21:38:38.135Z,99.90
2018-12-25T21:41:08.801Z,99.90
2018-12-25T21:43:38.514Z,99.90
2018-12-25T21:46:08.716Z,99.90
2018-12-25T21:48:38.305Z,99.90
2018-12-25T21:51:08.109Z,99.90
2018-12-25T21:53:37.810Z,99.90
2018-12-25T21:56:07.404Z,99.90
2018-12-25T21:58:36.918Z,99.90
2018-12-25T22:01:06.828Z,99.90
2018-12-25T22:03:36.450Z,99.90
2018-12-25T22:06:06.051Z,99.90
2018-12-25T22:08:35.614Z,99.90
2018-12-25T22:11:05.088Z,99.90
2018-12-25T22:13:34.641Z,99.90
2018-12-25T22:16:04.191Z,99.90
2018-12-25T22:18:33.714Z,99.90
2018-12-25T22:21:03.311Z,99.90
2018-12-25T22:23:32.830Z,99.90
2018-12-25T22:26:02.381Z,99.90
2018-12-25T22:28:31.968Z,99.90
2018-12-25T22:31:01.467Z,99.90
2018-12-25T22:33:30.948Z,99.90
2018-12-25T22:36:00.628Z,99.90
2018-12-25T22:38:30.166Z,99.90
2018-12-25T22:40:59.989Z,99.90
2018-12-25T22:43:29.480Z,99.90
2018-12-25T22:45:59.079Z,99.90
2018-12-25T22:48:28.632Z,99.90
2018-12-25T22:50:58.105Z,99.90
2018-12-25T22:53:27.622Z,99.90
2018-12-25T22:55:57.269Z,99.90
2018-12-25T22:58:26.759Z,99.90
2018-12-25T23:00:56.535Z,99.90
2018-12-25T23:03:27.528Z,99.90
2018-12-25T23:05:57.151Z,99.90
2018-12-25T23:08:26.686Z,99.90
2018-12-25T23:10:56.207Z,99.90
2018-12-25T23:13:25.757Z,99.90
2018-12-25T23:15:55.335Z,99.90
2018-12-25T23:18:24.827Z,99.90
2018-12-25T23:20:54.377Z,99.90
2018-12-25T23:23:23.927Z,99.90
2018-12-25T23:25:53.746Z,99.90
2018-12-25T23:28:23.354Z,99.90
2018-12-25T23:30:52.873Z,99.90
2018-12-25T23:33:22.418Z,99.90
2018-12-25T23:35:51.919Z,99.90
2018-12-25T23:38:21.441Z,99.90
2018-12-25T23:40:51.085Z,99.90
2018-12-25T23:43:20.631Z,99.90
2018-12-25T23:45:50.164Z,99.90
2018-12-25T23:48:19.751Z,99.90
2018-12-25T23:50:49.260Z,99.90
2018-12-25T23:53:19.219Z,99.90
2018-12-25T23:55:52.975Z,99.90
2018-12-25T23:58:19.823Z,99.90
